sensor_id;sensor_type;location;lat;lon;timestamp;pressure;altitude;pressure_sealevel;temperature;humidity
38400;BME280;24180;42.676;23.320;2023-07-13T00:01:27;95064.63;;;23.18;78.98
38400;BME280;24180;42.676;23.320;2023-07-13T00:03:52;95019.59;;;23.07;78.96
38400;BME280;24180;42.676;23.320;2023-07-13T00:06:18;95034.25;;;23.03;78.97
38400;BME280;24180;42.676;23.320;2023-07-13T00:08:45;95041.50;;;23.07;78.96
38400;BME280;24180;42.676;23.320;2023-07-13T00:11:10;95054.16;;;23.05;78.97
38400;BME280;24180;42.676;23.320;2023-07-13T00:13:36;95046.84;;;23.01;78.96
38400;BME280;24180;42.676;23.320;2023-07-13T00:16:04;59814.34;;;24.39;79.45
38400;BME280;24180;42.676;23.320;2023-07-13T00:18:30;95048.84;;;23.05;78.97
38400;BME280;24180;42.676;23.320;2023-07-13T00:20:56;59814.34;;;24.39;79.49
38400;BME280;24180;42.676;23.320;2023-07-13T00:23:30;95021.00;;;22.78;78.95
38400;BME280;24180;42.676;23.320;2023-07-13T00:25:56;95020.91;;;22.91;78.96
38400;BME280;24180;42.676;23.320;2023-07-13T00:28:22;95059.47;;;22.99;78.96
38400;BME280;24180;42.676;23.320;2023-07-13T00:30:48;95031.56;;;22.78;78.95
38400;BME280;24180;42.676;23.320;2023-07-13T00:33:13;95050.56;;;22.93;78.96
38400;BME280;24180;42.676;23.320;2023-07-13T00:35:38;95031.97;;;22.75;78.94
38400;BME280;24180;42.676;23.320;2023-07-13T00:38:05;95050.63;;;22.80;78.95
38400;BME280;24180;42.676;23.320;2023-07-13T00:40:30;95044.19;;;22.69;78.93
38400;BME280;24180;42.676;23.320;2023-07-13T00:42:58;95006.25;;;22.57;78.92
38400;BME280;24180;42.676;23.320;2023-07-13T00:47:49;95005.28;;;22.45;78.91
38400;BME280;24180;42.676;23.320;2023-07-13T00:50:16;95039.72;;;22.63;78.93
38400;BME280;24180;42.676;23.320;2023-07-13T00:52:45;95029.56;;;22.60;78.93
38400;BME280;24180;42.676;23.320;2023-07-13T00:55:12;95015.41;;;22.55;78.93
38400;BME280;24180;42.676;23.320;2023-07-13T00:57:38;95024.72;;;22.57;78.92
38400;BME280;24180;42.676;23.320;2023-07-13T01:00:05;59948.72;;;24.39;79.08
38400;BME280;24180;42.676;23.320;2023-07-13T01:02:33;95026.69;;;22.30;78.90
38400;BME280;24180;42.676;23.320;2023-07-13T01:04:59;95030.91;;;22.31;78.90
38400;BME280;24180;42.676;23.320;2023-07-13T01:07:25;95020.97;;;22.27;78.90
38400;BME280;24180;42.676;23.320;2023-07-13T01:09:50;95027.31;;;22.26;78.90
38400;BME280;24180;42.676;23.320;2023-07-13T01:12:16;94997.09;;;22.15;78.89
38400;BME280;24180;42.676;23.320;2023-07-13T01:14:41;94996.69;;;22.23;78.89
38400;BME280;24180;42.676;23.320;2023-07-13T01:17:09;95007.78;;;22.27;78.90
38400;BME280;24180;42.676;23.320;2023-07-13T01:19:41;94994.44;;;22.15;78.89
38400;BME280;24180;42.676;23.320;2023-07-13T01:22:10;95007.44;;;22.17;78.90
38400;BME280;24180;42.676;23.320;2023-07-13T01:24:40;95010.47;;;22.32;78.90
38400;BME280;24180;42.676;23.320;2023-07-13T01:27:07;95008.69;;;22.14;78.89
38400;BME280;24180;42.676;23.320;2023-07-13T01:29:35;95006.44;;;22.11;78.88
38400;BME280;24180;42.676;23.320;2023-07-13T01:32:12;95005.84;;;22.09;78.88
38400;BME280;24180;42.676;23.320;2023-07-13T01:34:38;94996.13;;;21.90;78.87
38400;BME280;24180;42.676;23.320;2023-07-13T01:37:05;94993.09;;;22.06;78.88
38400;BME280;24180;42.676;23.320;2023-07-13T01:39:31;94998.94;;;22.08;78.70
38400;BME280;24180;42.676;23.320;2023-07-13T01:41:57;94970.16;;;21.87;78.87
38400;BME280;24180;42.676;23.320;2023-07-13T01:44:22;95010.34;;;21.89;78.87
38400;BME280;24180;42.676;23.320;2023-07-13T01:46:47;94973.44;;;21.76;78.67
38400;BME280;24180;42.676;23.320;2023-07-13T01:49:13;95005.13;;;21.81;78.86
38400;BME280;24180;42.676;23.320;2023-07-13T01:51:38;95029.13;;;21.63;78.85
38400;BME280;24180;42.676;23.320;2023-07-13T01:54:04;95007.75;;;21.69;78.85
38400;BME280;24180;42.676;23.320;2023-07-13T01:56:29;94963.38;;;21.53;78.83
38400;BME280;24180;42.676;23.320;2023-07-13T01:58:55;94997.38;;;21.68;78.84
38400;BME280;24180;42.676;23.320;2023-07-13T02:01:20;94997.00;;;21.76;78.86
38400;BME280;24180;42.676;23.320;2023-07-13T02:03:46;94992.91;;;21.75;78.86
38400;BME280;24180;42.676;23.320;2023-07-13T02:06:11;94979.56;;;21.70;78.85
38400;BME280;24180;42.676;23.320;2023-07-13T02:08:37;94996.97;;;21.71;78.85
38400;BME280;24180;42.676;23.320;2023-07-13T02:11:03;94990.31;;;21.62;78.84
38400;BME280;24180;42.676;23.320;2023-07-13T02:13:29;94981.81;;;21.53;78.83
38400;BME280;24180;42.676;23.320;2023-07-13T02:15:54;95011.63;;;21.54;78.83
38400;BME280;24180;42.676;23.320;2023-07-13T02:18:20;94986.47;;;21.51;78.84
38400;BME280;24180;42.676;23.320;2023-07-13T02:20:45;94994.56;;;21.63;78.66
38400;BME280;24180;42.676;23.320;2023-07-13T02:23:11;94976.53;;;21.53;78.83
38400;BME280;24180;42.676;23.320;2023-07-13T02:25:37;94993.78;;;21.62;78.85
38400;BME280;24180;42.676;23.320;2023-07-13T02:28:02;94987.28;;;21.52;78.65
38400;BME280;24180;42.676;23.320;2023-07-13T02:30:29;95007.94;;;21.55;78.65
38400;BME280;24180;42.676;23.320;2023-07-13T02:32:55;95007.94;;;21.61;78.66
38400;BME280;24180;42.676;23.320;2023-07-13T02:35:21;94972.69;;;21.42;78.64
38400;BME280;24180;42.676;23.320;2023-07-13T02:37:47;95009.16;;;21.59;78.65
38400;BME280;24180;42.676;23.320;2023-07-13T02:40:12;94974.72;;;21.40;78.63
38400;BME280;24180;42.676;23.320;2023-07-13T02:42:38;95008.34;;;21.65;78.67
38400;BME280;24180;42.676;23.320;2023-07-13T02:45:04;95003.91;;;21.45;78.64
38400;BME280;24180;42.676;23.320;2023-07-13T02:47:31;95003.53;;;21.42;78.64
38400;BME280;24180;42.676;23.320;2023-07-13T02:49:57;95000.69;;;21.37;78.64
38400;BME280;24180;42.676;23.320;2023-07-13T02:52:22;94975.16;;;21.18;78.62
38400;BME280;24180;42.676;23.320;2023-07-13T02:54:48;94988.16;;;21.18;78.62
38400;BME280;24180;42.676;23.320;2023-07-13T02:57:13;95007.97;;;21.28;78.63
38400;BME280;24180;42.676;23.320;2023-07-13T02:59:39;94973.22;;;21.02;78.60
38400;BME280;24180;42.676;23.320;2023-07-13T03:02:04;94984.44;;;21.07;78.61
38400;BME280;24180;42.676;23.320;2023-07-13T03:04:30;94999.84;;;21.10;78.62
38400;BME280;24180;42.676;23.320;2023-07-13T03:06:55;94983.03;;;21.05;78.60
38400;BME280;24180;42.676;23.320;2023-07-13T03:09:24;95002.47;;;21.10;78.62
38400;BME280;24180;42.676;23.320;2023-07-13T03:11:49;94984.25;;;21.02;78.60
38400;BME280;24180;42.676;23.320;2023-07-13T03:14:14;95006.53;;;21.19;78.62
38400;BME280;24180;42.676;23.320;2023-07-13T03:16:40;94984.47;;;21.14;78.62
38400;BME280;24180;42.676;23.320;2023-07-13T03:19:05;95006.16;;;21.16;78.61
38400;BME280;24180;42.676;23.320;2023-07-13T03:21:31;95006.78;;;21.18;78.62
38400;BME280;24180;42.676;23.320;2023-07-13T03:23:56;94990.91;;;21.05;78.60
38400;BME280;24180;42.676;23.320;2023-07-13T03:26:22;94990.91;;;21.11;78.62
38400;BME280;24180;42.676;23.320;2023-07-13T03:28:47;95001.72;;;21.21;78.62
38400;BME280;24180;42.676;23.320;2023-07-13T03:31:16;94990.09;;;21.11;78.62
38400;BME280;24180;42.676;23.320;2023-07-13T03:33:42;95022.75;;;21.16;78.62
38400;BME280;24180;42.676;23.320;2023-07-13T03:36:12;95016.69;;;21.16;78.61
38400;BME280;24180;42.676;23.320;2023-07-13T03:38:38;95018.28;;;21.23;78.63
38400;BME280;24180;42.676;23.320;2023-07-13T03:41:03;95012.41;;;21.15;78.61
38400;BME280;24180;42.676;23.320;2023-07-13T03:43:29;95004.31;;;21.10;78.61
38400;BME280;24180;42.676;23.320;2023-07-13T03:45:55;95025.81;;;21.26;78.63
38400;BME280;24180;42.676;23.320;2023-07-13T03:48:20;94993.38;;;21.13;78.62
38400;BME280;24180;42.676;23.320;2023-07-13T03:50:47;95018.63;;;21.30;78.63
38400;BME280;24180;42.676;23.320;2023-07-13T03:53:12;94997.44;;;21.15;78.61
38400;BME280;24180;42.676;23.320;2023-07-13T03:55:37;95002.66;;;21.09;78.61
38400;BME280;24180;42.676;23.320;2023-07-13T03:58:32;95011.34;;;21.26;78.63
38400;BME280;24180;42.676;23.320;2023-07-13T04:00:59;94990.41;;;21.14;78.62
38400;BME280;24180;42.676;23.320;2023-07-13T04:03:25;94998.63;;;21.06;78.61
38400;BME280;24180;42.676;23.320;2023-07-13T04:05:54;95012.25;;;21.28;78.62
38400;BME280;24180;42.676;23.320;2023-07-13T04:08:20;95013.06;;;21.28;78.63
38400;BME280;24180;42.676;23.320;2023-07-13T04:10:45;95007.59;;;21.36;78.64
38400;BME280;24180;42.676;23.320;2023-07-13T04:13:11;94986.09;;;21.28;78.62
38400;BME280;24180;42.676;23.320;2023-07-13T04:15:36;95012.41;;;21.47;78.65
38400;BME280;24180;42.676;23.320;2023-07-13T04:18:02;95001.91;;;21.41;78.63
38400;BME280;24180;42.676;23.320;2023-07-13T04:20:29;95012.22;;;21.56;78.65
38400;BME280;24180;42.676;23.320;2023-07-13T04:22:54;95033.88;;;21.64;78.67
38400;BME280;24180;42.676;23.320;2023-07-13T04:25:21;95006.75;;;21.44;78.64
38400;BME280;24180;42.676;23.320;2023-07-13T04:27:46;95027.81;;;21.64;78.66
38400;BME280;24180;42.676;23.320;2023-07-13T04:30:12;95009.56;;;21.56;78.65
38400;BME280;24180;42.676;23.320;2023-07-13T04:32:38;94997.41;;;21.55;78.65
38400;BME280;24180;42.676;23.320;2023-07-13T04:35:03;95024.75;;;21.67;78.66
38400;BME280;24180;42.676;23.320;2023-07-13T04:37:29;94995.81;;;21.54;78.65
38400;BME280;24180;42.676;23.320;2023-07-13T04:39:54;95026.59;;;21.73;78.67
38400;BME280;24180;42.676;23.320;2023-07-13T04:42:20;95038.31;;;21.90;78.69
38400;BME280;24180;42.676;23.320;2023-07-13T04:44:49;95036.88;;;21.87;78.68
38400;BME280;24180;42.676;23.320;2023-07-13T04:47:15;95012.00;;;21.70;78.66
38400;BME280;24180;42.676;23.320;2023-07-13T04:49:40;95017.03;;;21.85;78.68
38400;BME280;24180;42.676;23.320;2023-07-13T04:52:06;95015.59;;;21.89;78.69
38400;BME280;24180;42.676;23.320;2023-07-13T04:54:33;95046.63;;;21.87;78.68
38400;BME280;24180;42.676;23.320;2023-07-13T04:56:59;95059.44;;;21.97;78.69
38400;BME280;24180;42.676;23.320;2023-07-13T04:59:25;95059.00;;;22.06;78.69
38400;BME280;24180;42.676;23.320;2023-07-13T05:01:50;95056.97;;;22.08;78.70
38400;BME280;24180;42.676;23.320;2023-07-13T05:04:16;95050.25;;;22.12;78.70
38400;BME280;24180;42.676;23.320;2023-07-13T05:06:41;95057.56;;;22.17;78.90
38400;BME280;24180;42.676;23.320;2023-07-13T05:09:07;95088.63;;;22.26;78.72
38400;BME280;24180;42.676;23.320;2023-07-13T05:11:33;95054.69;;;22.25;78.72
38400;BME280;24180;42.676;23.320;2023-07-13T05:13:58;95056.50;;;22.24;78.71
38400;BME280;24180;42.676;23.320;2023-07-13T05:16:24;95060.31;;;22.42;78.73
38400;BME280;24180;42.676;23.320;2023-07-13T05:18:49;95055.84;;;22.35;78.72
38400;BME280;24180;42.676;23.320;2023-07-13T05:21:14;95045.94;;;22.37;78.73
38400;BME280;24180;42.676;23.320;2023-07-13T05:23:40;95064.94;;;22.53;78.74
38400;BME280;24180;42.676;23.320;2023-07-13T05:26:09;95043.84;;;22.58;78.74
38400;BME280;24180;42.676;23.320;2023-07-13T05:28:35;95064.88;;;22.72;78.75
38400;BME280;24180;42.676;23.320;2023-07-13T05:31:01;95045.16;;;22.75;78.76
38400;BME280;24180;42.676;23.320;2023-07-13T05:33:27;95040.09;;;22.67;78.75
38400;BME280;24180;42.676;23.320;2023-07-13T05:35:53;95072.88;;;22.97;78.96
38400;BME280;24180;42.676;23.320;2023-07-13T05:38:19;95081.38;;;23.06;78.97
38400;BME280;24180;42.676;23.320;2023-07-13T05:40:45;95083.75;;;23.14;78.98
38400;BME280;24180;42.676;23.320;2023-07-13T05:43:11;95061.38;;;23.16;78.98
38400;BME280;24180;42.676;23.320;2023-07-13T05:45:36;95077.34;;;23.28;78.99
38400;BME280;24180;42.676;23.320;2023-07-13T05:48:02;95099.44;;;23.47;79.00
38400;BME280;24180;42.676;23.320;2023-07-13T05:50:27;95071.38;;;23.46;79.00
38400;BME280;24180;42.676;23.320;2023-07-13T05:52:53;95083.03;;;23.63;79.02
38400;BME280;24180;42.676;23.320;2023-07-13T05:55:19;95080.50;;;23.74;79.03
38400;BME280;24180;42.676;23.320;2023-07-13T05:57:44;95078.66;;;23.90;79.04
38400;BME280;24180;42.676;23.320;2023-07-13T06:00:10;95031.88;;;23.66;79.02
38400;BME280;24180;42.676;23.320;2023-07-13T06:02:36;95045.03;;;23.82;79.04
38400;BME280;24180;42.676;23.320;2023-07-13T06:05:01;95119.66;;;24.39;79.08
38400;BME280;24180;42.676;23.320;2023-07-13T06:07:27;95066.41;;;24.29;79.08
38400;BME280;24180;42.676;23.320;2023-07-13T06:09:52;95084.28;;;24.46;79.10
38400;BME280;24180;42.676;23.320;2023-07-13T06:12:18;95089.44;;;24.46;79.10
38400;BME280;24180;42.676;23.320;2023-07-13T06:14:43;95062.22;;;24.52;79.10
38400;BME280;24180;42.676;23.320;2023-07-13T06:17:09;95075.28;;;24.70;79.11
38400;BME280;24180;42.676;23.320;2023-07-13T06:19:34;95078.31;;;24.69;79.11
38400;BME280;24180;42.676;23.320;2023-07-13T06:22:00;95074.63;;;24.97;79.14
38400;BME280;24180;42.676;23.320;2023-07-13T06:24:26;95072.78;;;24.97;79.14
38400;BME280;24180;42.676;23.320;2023-07-13T06:26:51;95082.56;;;25.15;79.15
38400;BME280;24180;42.676;23.320;2023-07-13T06:29:17;95080.13;;;25.22;79.16
38400;BME280;24180;42.676;23.320;2023-07-13T06:31:43;95126.13;;;25.52;79.18
38400;BME280;24180;42.676;23.320;2023-07-13T06:34:08;95077.25;;;25.48;79.18
38400;BME280;24180;42.676;23.320;2023-07-13T06:36:34;95099.41;;;25.58;79.19
38400;BME280;24180;42.676;23.320;2023-07-13T06:39:01;95092.91;;;25.68;79.19
38400;BME280;24180;42.676;23.320;2023-07-13T06:41:27;95098.50;;;25.73;79.58
38400;BME280;24180;42.676;23.320;2023-07-13T06:43:55;95099.47;;;25.88;79.58
38400;BME280;24180;42.676;23.320;2023-07-13T06:46:22;95044.34;;;25.67;79.19
38400;BME280;24180;42.676;23.320;2023-07-13T06:48:47;95097.28;;;25.97;79.59
38400;BME280;24180;42.676;23.320;2023-07-13T06:51:13;95101.34;;;25.99;79.23
38400;BME280;24180;42.676;23.320;2023-07-13T06:53:38;95100.50;;;26.16;79.60
38400;BME280;24180;42.676;23.320;2023-07-13T06:56:04;95107.81;;;26.24;79.62
38400;BME280;24180;42.676;23.320;2023-07-13T06:58:29;95080.09;;;26.28;79.61
38400;BME280;24180;42.676;23.320;2023-07-13T07:00:54;95105.34;;;26.42;79.63
38400;BME280;24180;42.676;23.320;2023-07-13T07:03:20;95085.09;;;26.52;79.63
38400;BME280;24180;42.676;23.320;2023-07-13T07:05:45;95062.28;;;26.58;79.65
38400;BME280;24180;42.676;23.320;2023-07-13T07:08:11;95080.41;;;27.05;79.68
38400;BME280;24180;42.676;23.320;2023-07-13T07:10:36;95123.22;;;27.73;81.24
38400;BME280;24180;42.676;23.320;2023-07-13T07:13:02;95129.38;;;28.05;79.77
38400;BME280;24180;42.676;23.320;2023-07-13T07:15:28;95121.94;;;27.85;79.75
38400;BME280;24180;42.676;23.320;2023-07-13T07:17:53;95135.69;;;27.84;79.75
38400;BME280;24180;42.676;23.320;2023-07-13T07:20:19;95112.06;;;27.53;81.22
38400;BME280;24180;42.676;23.320;2023-07-13T07:22:45;95138.22;;;27.56;81.22
38400;BME280;24180;42.676;23.320;2023-07-13T07:25:11;95073.19;;;27.41;81.21
38400;BME280;24180;42.676;23.320;2023-07-13T07:27:37;95106.16;;;27.52;79.73
38400;BME280;24180;42.676;23.320;2023-07-13T07:30:03;59275.25;;;24.71;81.09
38400;BME280;24180;42.676;23.320;2023-07-13T07:32:29;59275.25;;;24.71;81.09
38400;BME280;24180;42.676;23.320;2023-07-13T07:34:56;59275.25;;;24.71;79.60
38400;BME280;24180;42.676;23.320;2023-07-13T07:37:22;59275.25;;;24.71;81.09
38400;BME280;24180;42.676;23.320;2023-07-13T07:39:47;58939.09;;;26.01;81.09
38400;BME280;24180;42.676;23.320;2023-07-13T07:42:13;95048.16;;;28.03;81.27
38400;BME280;24180;42.676;23.320;2023-07-13T07:44:40;59275.25;;;24.71;81.09
38400;BME280;24180;42.676;23.320;2023-07-13T07:47:07;59275.25;;;24.71;81.14
38400;BME280;24180;42.676;23.320;2023-07-13T07:49:32;59275.25;;;26.01;80.97
38400;BME280;24180;42.676;23.320;2023-07-13T07:51:58;59275.25;;;26.01;81.09
38400;BME280;24180;42.676;23.320;2023-07-13T07:54:23;59275.25;;;24.71;81.14
38400;BME280;24180;42.676;23.320;2023-07-13T07:56:48;58939.09;;;26.01;81.09
38400;BME280;24180;42.676;23.320;2023-07-13T07:59:14;59004.75;;;26.01;81.83
38400;BME280;24180;42.676;23.320;2023-07-13T08:01:39;59004.75;;;26.01;81.88
38400;BME280;24180;42.676;23.320;2023-07-13T08:04:05;59004.75;;;26.01;81.09
38400;BME280;24180;42.676;23.320;2023-07-13T08:06:33;59004.75;;;26.01;81.83
38400;BME280;24180;42.676;23.320;2023-07-13T08:08:59;59341.25;;;26.01;81.83
38400;BME280;24180;42.676;23.320;2023-07-13T08:11:25;59004.75;;;26.01;81.83
38400;BME280;24180;42.676;23.320;2023-07-13T08:13:50;57659.09;;;26.01;81.88
38400;BME280;24180;42.676;23.320;2023-07-13T08:16:16;59004.75;;;26.65;81.88
38400;BME280;24180;42.676;23.320;2023-07-13T08:18:42;59004.75;;;26.01;85.11
38400;BME280;24180;42.676;23.320;2023-07-13T08:21:08;59004.75;;;26.65;82.12
38400;BME280;24180;42.676;23.320;2023-07-13T08:23:34;57659.09;;;26.65;81.88
38400;BME280;24180;42.676;23.320;2023-07-13T08:25:59;57659.09;;;26.01;84.86
38400;BME280;24180;42.676;23.320;2023-07-13T08:28:27;59267.81;;;26.65;85.11
38400;BME280;24180;42.676;23.320;2023-07-13T08:30:52;57916.56;;;26.65;85.11
38400;BME280;24180;42.676;23.320;2023-07-13T08:33:19;59605.72;;;26.65;85.11
38400;BME280;24180;42.676;23.320;2023-07-13T08:35:46;57916.56;;;26.65;84.86
38400;BME280;24180;42.676;23.320;2023-07-13T08:38:12;57916.56;;;26.65;85.11
38400;BME280;24180;42.676;23.320;2023-07-13T08:40:38;57916.56;;;29.24;85.11
38400;BME280;24180;42.676;23.320;2023-07-13T08:43:04;57916.56;;;29.24;85.61
38400;BME280;24180;42.676;23.320;2023-07-13T08:45:50;55215.66;;;29.24;91.67
38400;BME280;24180;42.676;23.320;2023-07-13T08:48:27;55709.97;;;29.24;91.67
38400;BME280;24180;42.676;23.320;2023-07-13T08:53:19;59275.25;;;29.24;81.09
38400;BME280;24180;42.676;23.320;2023-07-13T08:55:46;59275.25;;;26.01;80.97
38400;BME280;24180;42.676;23.320;2023-07-13T08:58:13;59275.25;;;26.01;81.09
38400;BME280;24180;42.676;23.320;2023-07-13T09:01:24;59275.25;;;24.71;81.09
38400;BME280;24180;42.676;23.320;2023-07-13T09:04:11;59275.25;;;24.71;81.09
38400;BME280;24180;42.676;23.320;2023-07-13T09:12:00;59275.25;;;24.71;81.09
38400;BME280;24180;42.676;23.320;2023-07-13T09:14:47;59275.25;;;24.71;81.09
38400;BME280;24180;42.676;23.320;2023-07-13T09:17:18;59275.25;;;24.71;81.09
38400;BME280;24180;42.676;23.320;2023-07-13T09:19:47;59275.25;;;24.71;81.09
38400;BME280;24180;42.676;23.320;2023-07-13T09:22:18;59275.25;;;24.71;81.09
38400;BME280;24180;42.676;23.320;2023-07-13T09:24:55;59275.25;;;24.71;80.97
38400;BME280;24180;42.676;23.320;2023-07-13T09:27:27;59275.25;;;24.71;81.09
38400;BME280;24180;42.676;23.320;2023-07-13T09:30:24;59275.25;;;24.71;81.09
38400;BME280;24180;42.676;23.320;2023-07-13T09:32:51;59275.25;;;24.71;80.97
38400;BME280;24180;42.676;23.320;2023-07-13T09:35:20;59275.25;;;24.71;81.09
38400;BME280;24180;42.676;23.320;2023-07-13T09:37:47;59275.25;;;24.71;81.09
38400;BME280;24180;42.676;23.320;2023-07-13T09:43:21;59275.25;;;24.71;81.09
38400;BME280;24180;42.676;23.320;2023-07-13T09:45:47;59275.25;;;24.71;80.97
38400;BME280;24180;42.676;23.320;2023-07-13T09:48:15;59275.25;;;24.71;80.97
38400;BME280;24180;42.676;23.320;2023-07-13T09:50:42;59275.25;;;24.71;81.09
38400;BME280;24180;42.676;23.320;2023-07-13T09:53:30;59275.25;;;24.71;81.09
38400;BME280;24180;42.676;23.320;2023-07-13T09:55:56;59275.25;;;24.71;81.09
38400;BME280;24180;42.676;23.320;2023-07-13T09:58:23;59275.25;;;24.71;81.09
38400;BME280;24180;42.676;23.320;2023-07-13T10:00:58;59275.25;;;24.71;81.09
38400;BME280;24180;42.676;23.320;2023-07-13T10:03:27;59275.25;;;24.71;81.09
38400;BME280;24180;42.676;23.320;2023-07-13T10:05:53;59275.25;;;24.71;80.97
38400;BME280;24180;42.676;23.320;2023-07-13T10:10:45;59275.25;;;24.71;80.97
38400;BME280;24180;42.676;23.320;2023-07-13T10:13:25;59275.25;;;24.71;81.09
38400;BME280;24180;42.676;23.320;2023-07-13T10:15:52;59275.25;;;24.71;81.09
38400;BME280;24180;42.676;23.320;2023-07-13T10:18:18;59275.25;;;24.71;81.14
38400;BME280;24180;42.676;23.320;2023-07-13T10:20:45;59275.25;;;24.71;80.97
38400;BME280;24180;42.676;23.320;2023-07-13T10:23:15;59275.25;;;24.71;81.09
38400;BME280;24180;42.676;23.320;2023-07-13T10:25:47;59275.25;;;26.01;81.09
38400;BME280;24180;42.676;23.320;2023-07-13T10:30:45;59341.25;;;26.01;81.09
38400;BME280;24180;42.676;23.320;2023-07-13T10:33:12;59275.25;;;26.01;81.83
38400;BME280;24180;42.676;23.320;2023-07-13T10:35:41;59004.75;;;26.01;81.83
38400;BME280;24180;42.676;23.320;2023-07-13T10:38:11;59004.75;;;26.65;81.83
38400;BME280;24180;42.676;23.320;2023-07-13T10:41:05;59004.75;;;26.01;85.11
38400;BME280;24180;42.676;23.320;2023-07-13T10:43:35;59004.75;;;26.01;81.88
38400;BME280;24180;42.676;23.320;2023-07-13T10:46:05;59004.75;;;26.65;82.12
38400;BME280;24180;42.676;23.320;2023-07-13T10:48:34;59004.75;;;26.01;81.88
38400;BME280;24180;42.676;23.320;2023-07-13T10:51:03;59004.75;;;26.65;82.12
38400;BME280;24180;42.676;23.320;2023-07-13T10:53:34;57659.09;;;26.65;81.88
38400;BME280;24180;42.676;23.320;2023-07-13T10:56:22;57916.56;;;26.65;84.86
38400;BME280;24180;42.676;23.320;2023-07-13T10:59:02;57916.56;;;26.65;81.88
38400;BME280;24180;42.676;23.320;2023-07-13T11:04:22;59004.75;;;26.01;81.88
38400;BME280;24180;42.676;23.320;2023-07-13T11:06:53;59004.75;;;26.01;82.12
38400;BME280;24180;42.676;23.320;2023-07-13T11:12:07;59267.81;;;26.65;81.88
38400;BME280;24180;42.676;23.320;2023-07-13T11:15:01;59004.75;;;26.65;81.88
38400;BME280;24180;42.676;23.320;2023-07-13T11:19:53;59004.75;;;26.01;82.12
38400;BME280;24180;42.676;23.320;2023-07-13T11:22:25;59004.75;;;26.01;82.12
38400;BME280;24180;42.676;23.320;2023-07-13T11:27:44;59004.75;;;26.01;81.88
38400;BME280;24180;42.676;23.320;2023-07-13T11:30:23;59004.75;;;26.01;81.88
38400;BME280;24180;42.676;23.320;2023-07-13T11:32:51;59004.75;;;26.01;82.12
38400;BME280;24180;42.676;23.320;2023-07-13T11:35:27;59004.75;;;26.01;81.88
38400;BME280;24180;42.676;23.320;2023-07-13T11:37:53;59004.75;;;26.01;81.88
38400;BME280;24180;42.676;23.320;2023-07-13T11:40:27;59605.72;;;26.65;82.12
38400;BME280;24180;42.676;23.320;2023-07-13T11:43:01;59004.75;;;26.65;84.86
38400;BME280;24180;42.676;23.320;2023-07-13T11:45:27;59004.75;;;26.01;82.12
38400;BME280;24180;42.676;23.320;2023-07-13T11:47:53;59267.81;;;26.65;84.86
38400;BME280;24180;42.676;23.320;2023-07-13T11:50:21;59004.75;;;26.65;81.88
38400;BME280;24180;42.676;23.320;2023-07-13T11:52:47;59004.75;;;26.65;81.88
38400;BME280;24180;42.676;23.320;2023-07-13T11:55:17;59267.81;;;26.65;85.11
38400;BME280;24180;42.676;23.320;2023-07-13T11:57:55;59004.75;;;26.01;81.88
38400;BME280;24180;42.676;23.320;2023-07-13T12:00:26;59004.75;;;26.01;81.88
38400;BME280;24180;42.676;23.320;2023-07-13T12:02:55;58939.09;;;26.01;81.88
38400;BME280;24180;42.676;23.320;2023-07-13T12:05:21;59004.75;;;26.01;81.88
38400;BME280;24180;42.676;23.320;2023-07-13T12:07:48;59004.75;;;26.65;81.88
38400;BME280;24180;42.676;23.320;2023-07-13T12:10:25;59004.75;;;26.01;81.88
38400;BME280;24180;42.676;23.320;2023-07-13T12:13:00;59004.75;;;26.01;81.83
38400;BME280;24180;42.676;23.320;2023-07-13T12:15:43;59004.75;;;26.65;82.12
38400;BME280;24180;42.676;23.320;2023-07-13T12:18:20;59004.75;;;26.65;82.12
38400;BME280;24180;42.676;23.320;2023-07-13T12:20:50;59004.75;;;26.01;81.83
38400;BME280;24180;42.676;23.320;2023-07-13T12:23:25;59004.75;;;26.01;82.12
38400;BME280;24180;42.676;23.320;2023-07-13T12:25:52;59004.75;;;26.01;81.83
38400;BME280;24180;42.676;23.320;2023-07-13T12:28:47;59004.75;;;26.01;81.88
38400;BME280;24180;42.676;23.320;2023-07-13T12:33:58;59004.75;;;26.01;81.88
38400;BME280;24180;42.676;23.320;2023-07-13T12:36:23;59004.75;;;26.65;82.12
38400;BME280;24180;42.676;23.320;2023-07-13T12:38:49;59004.75;;;26.01;81.88
38400;BME280;24180;42.676;23.320;2023-07-13T12:41:16;59004.75;;;26.01;82.12
38400;BME280;24180;42.676;23.320;2023-07-13T12:43:42;59004.75;;;26.01;81.88
38400;BME280;24180;42.676;23.320;2023-07-13T12:46:21;59004.75;;;26.01;81.88
38400;BME280;24180;42.676;23.320;2023-07-13T12:48:51;59004.75;;;26.01;81.88
38400;BME280;24180;42.676;23.320;2023-07-13T12:51:17;57659.09;;;26.01;81.88
38400;BME280;24180;42.676;23.320;2023-07-13T12:53:48;59004.75;;;26.01;81.88
38400;BME280;24180;42.676;23.320;2023-07-13T12:56:19;59004.75;;;26.01;81.88
38400;BME280;24180;42.676;23.320;2023-07-13T12:58:47;59004.75;;;26.01;81.83
38400;BME280;24180;42.676;23.320;2023-07-13T13:01:16;59004.75;;;26.01;81.83
38400;BME280;24180;42.676;23.320;2023-07-13T13:03:49;59004.75;;;29.24;81.83
38400;BME280;24180;42.676;23.320;2023-07-13T13:06:20;59004.75;;;26.01;81.88
38400;BME280;24180;42.676;23.320;2023-07-13T13:08:49;59004.75;;;26.01;81.88
38400;BME280;24180;42.676;23.320;2023-07-13T13:11:19;59004.75;;;26.01;81.83
38400;BME280;24180;42.676;23.320;2023-07-13T13:13:45;59004.75;;;26.01;81.88
38400;BME280;24180;42.676;23.320;2023-07-13T13:16:40;59004.75;;;26.01;81.88
38400;BME280;24180;42.676;23.320;2023-07-13T13:19:18;59004.75;;;26.01;81.83
38400;BME280;24180;42.676;23.320;2023-07-13T13:21:46;58939.09;;;26.01;81.09
38400;BME280;24180;42.676;23.320;2023-07-13T13:24:14;59275.25;;;25.68;81.14
38400;BME280;24180;42.676;23.320;2023-07-13T13:26:41;58939.09;;;26.01;81.83